Estación de Chanco INIA

Ultimos registro cada 15 minutos 63
Estación Fecha / Hora Temperatura Humedad Lluvia Velocidad Dirección Radiación Presion
63 Chanco INIA 05-05-2026 15:30 17,2 76,8 0 2,8 291 132 998
62 Chanco INIA 05-05-2026 15:15 17,1 75,6 0 2 289 181 998
61 Chanco INIA 05-05-2026 15:00 17,1 78,5 0 2 259 245 998
60 Chanco INIA 05-05-2026 14:45 17,2 78,1 0 0,8 256 283 998
59 Chanco INIA 05-05-2026 14:30 17 77,5 0 0,6 261 266 998
58 Chanco INIA 05-05-2026 14:15 16,9 77,4 0 0,1 253 222 998
57 Chanco INIA 05-05-2026 14:00 16,9 75,7 0 0,5 262 213 998
56 Chanco INIA 05-05-2026 13:45 16,9 75,5 0 0,6 263 281 998
55 Chanco INIA 05-05-2026 13:30 16,8 77,4 0 0,3 246 364 998
54 Chanco INIA 05-05-2026 13:15 17,2 77,3 0 2,3 250 441 999
53 Chanco INIA 05-05-2026 13:00 17,5 76,9 0 1 245 369 999
52 Chanco INIA 05-05-2026 12:45 17,6 74,2 0 0,3 254 310 998
51 Chanco INIA 05-05-2026 12:30 17,5 72,1 0 0 0 227 998
50 Chanco INIA 05-05-2026 12:15 17,5 73,1 0 0 0 316 998
49 Chanco INIA 05-05-2026 12:00 17 75,2 0 0 0 298 998
48 Chanco INIA 05-05-2026 11:45 16,9 77 0 0 0 177 998
47 Chanco INIA 05-05-2026 11:30 17,1 71,9 0 0 0 204 1001
46 Chanco INIA 05-05-2026 11:15 17,2 70,5 0 0 0 309 998
45 Chanco INIA 05-05-2026 11:00 17 73 0 0 0 330 998
44 Chanco INIA 05-05-2026 10:45 17 71,3 0 0 0 263 998
43 Chanco INIA 05-05-2026 10:30 17 71,1 0 0 0 212 998
42 Chanco INIA 05-05-2026 10:15 16,9 69,7 0 0 0 287 998
41 Chanco INIA 05-05-2026 10:00 16 77,9 0 0 0 238 998
40 Chanco INIA 05-05-2026 09:45 15,3 82 0 0 0 171 999
39 Chanco INIA 05-05-2026 09:30 14,6 87,3 0 0 0 180 998
38 Chanco INIA 05-05-2026 09:15 14 89,7 0 0 0 83 998
37 Chanco INIA 05-05-2026 09:00 13,5 91 0 0 0 77 998
36 Chanco INIA 05-05-2026 08:45 13,1 91,6 0 0 0 53 999
35 Chanco INIA 05-05-2026 08:30 12,9 91,7 0 0 0 37 999
34 Chanco INIA 05-05-2026 08:15 12,8 91,3 0 0 0 21 999
33 Chanco INIA 05-05-2026 08:00 12,8 91 0 0 0 13 999
32 Chanco INIA 05-05-2026 07:45 12,9 91,8 0 0 0 6 999
31 Chanco INIA 05-05-2026 07:30 12,8 91,4 0 0 0 1 999
30 Chanco INIA 05-05-2026 07:15 12,7 92,2 0 0 0 0 999
29 Chanco INIA 05-05-2026 07:00 12,9 91,9 0 0 0 0 999
28 Chanco INIA 05-05-2026 06:45 13 92,6 0 0 0 0 999
27 Chanco INIA 05-05-2026 06:30 13,1 93,7 0 0 0 0 999
26 Chanco INIA 05-05-2026 06:15 13 95,2 0 0 124 0 1000
25 Chanco INIA 05-05-2026 06:00 13 95,9 0 0 95 0 1000
24 Chanco INIA 05-05-2026 05:45 12,9 96,9 0 0 0 0 1000
23 Chanco INIA 05-05-2026 05:30 12,8 97 0 0 0 0 999
22 Chanco INIA 05-05-2026 05:15 12,8 97,4 0 0,1 41 0 1000
21 Chanco INIA 05-05-2026 05:00 12,6 97,8 0 0,6 109 0 1000
20 Chanco INIA 05-05-2026 04:45 12,3 97,7 0 0 0 0 1000
19 Chanco INIA 05-05-2026 04:30 12,4 97,5 0 0,4 307 0 999
18 Chanco INIA 05-05-2026 04:15 12,2 98,1 0 0,6 104 0 1000
17 Chanco INIA 05-05-2026 04:00 12 97,8 0 0 0 0 1000
16 Chanco INIA 05-05-2026 03:45 12,2 97,9 0 0 0 0 1000
15 Chanco INIA 05-05-2026 03:30 12,4 97,8 0 0 0 0 1000
14 Chanco INIA 05-05-2026 03:15 12,2 97,9 0 0 0 0 1000
13 Chanco INIA 05-05-2026 03:00 12 98,2 0 0 0 0 1000
12 Chanco INIA 05-05-2026 02:45 12 98 0 0 0 0 1000
11 Chanco INIA 05-05-2026 02:30 12,2 97,2 0 0 0 0 1001
10 Chanco INIA 05-05-2026 02:15 12,4 97,8 0 0 0 0 1000
9 Chanco INIA 05-05-2026 02:00 12,4 98,2 0 0 0 0 1000
8 Chanco INIA 05-05-2026 01:45 12,1 99 0 0 0 0 1000
7 Chanco INIA 05-05-2026 01:30 11,8 98,4 0 0 0 0 1000
6 Chanco INIA 05-05-2026 01:15 11,8 97,4 0 0 0 0 1001
5 Chanco INIA 05-05-2026 01:00 11,6 98,1 0 0 0 0 1001
4 Chanco INIA 05-05-2026 00:45 11,5 98 0 0 0 0 1001
3 Chanco INIA 05-05-2026 00:30 11,5 98,1 0 0 0 0 1001
2 Chanco INIA 05-05-2026 00:15 11,5 97,5 0 0 0 0 1001
1 Chanco INIA 05-05-2026 00:00 11,6 97,2 0 0 0 0 1001